sensor_id;sensor_type;location;lat;lon;timestamp;pressure;altitude;pressure_sealevel;temperature;humidity
14089;BME280;7120;52.890;6.040;2024-01-15T00:00:40;99991.09;;;2.84;100.00
14089;BME280;7120;52.890;6.040;2024-01-15T00:03:06;99994.59;;;2.79;100.00
14089;BME280;7120;52.890;6.040;2024-01-15T00:05:31;100001.59;;;2.80;100.00
14089;BME280;7120;52.890;6.040;2024-01-15T00:07:57;99995.66;;;2.73;100.00
14089;BME280;7120;52.890;6.040;2024-01-15T00:10:23;99992.72;;;2.69;100.00
14089;BME280;7120;52.890;6.040;2024-01-15T00:12:48;99990.81;;;2.80;100.00
14089;BME280;7120;52.890;6.040;2024-01-15T00:15:14;99992.16;;;2.83;100.00
14089;BME280;7120;52.890;6.040;2024-01-15T00:17:40;99982.69;;;2.85;100.00
14089;BME280;7120;52.890;6.040;2024-01-15T00:20:06;99974.31;;;2.87;100.00
14089;BME280;7120;52.890;6.040;2024-01-15T00:22:31;99980.53;;;2.87;100.00
14089;BME280;7120;52.890;6.040;2024-01-15T00:24:57;99974.03;;;2.88;100.00
14089;BME280;7120;52.890;6.040;2024-01-15T00:27:22;99977.28;;;2.95;100.00
14089;BME280;7120;52.890;6.040;2024-01-15T00:29:49;99964.84;;;2.99;100.00
14089;BME280;7120;52.890;6.040;2024-01-15T00:32:15;99970.25;;;2.99;100.00
14089;BME280;7120;52.890;6.040;2024-01-15T00:34:40;99969.44;;;3.04;100.00
14089;BME280;7120;52.890;6.040;2024-01-15T00:37:06;99969.97;;;3.11;100.00
14089;BME280;7120;52.890;6.040;2024-01-15T00:39:32;99967.00;;;3.13;100.00
14089;BME280;7120;52.890;6.040;2024-01-15T00:41:57;99949.47;;;3.00;100.00
14089;BME280;7120;52.890;6.040;2024-01-15T00:44:23;99946.19;;;3.13;100.00
14089;BME280;7120;52.890;6.040;2024-01-15T00:46:48;99934.81;;;3.16;100.00
14089;BME280;7120;52.890;6.040;2024-01-15T00:49:13;99939.97;;;3.18;100.00
14089;BME280;7120;52.890;6.040;2024-01-15T00:51:39;99933.75;;;3.17;100.00
14089;BME280;7120;52.890;6.040;2024-01-15T00:54:05;99926.19;;;3.09;100.00
14089;BME280;7120;52.890;6.040;2024-01-15T00:56:30;99928.59;;;3.16;100.00
14089;BME280;7120;52.890;6.040;2024-01-15T00:58:55;99921.34;;;3.11;100.00
14089;BME280;7120;52.890;6.040;2024-01-15T01:01:20;99927.28;;;3.03;100.00
14089;BME280;7120;52.890;6.040;2024-01-15T01:03:46;99929.94;;;3.23;100.00
14089;BME280;7120;52.890;6.040;2024-01-15T01:06:11;99918.88;;;3.25;100.00
14089;BME280;7120;52.890;6.040;2024-01-15T01:08:36;99915.88;;;3.26;100.00
14089;BME280;7120;52.890;6.040;2024-01-15T01:11:02;99921.28;;;3.32;100.00
14089;BME280;7120;52.890;6.040;2024-01-15T01:13:27;99923.44;;;3.29;100.00
14089;BME280;7120;52.890;6.040;2024-01-15T01:15:52;99919.91;;;3.29;100.00
14089;BME280;7120;52.890;6.040;2024-01-15T01:18:18;99949.41;;;3.15;100.00
14089;BME280;7120;52.890;6.040;2024-01-15T01:20:43;99972.69;;;3.01;100.00
14089;BME280;7120;52.890;6.040;2024-01-15T01:23:08;99959.78;;;2.83;100.00
14089;BME280;7120;52.890;6.040;2024-01-15T01:25:34;99968.69;;;2.78;100.00
14089;BME280;7120;52.890;6.040;2024-01-15T01:27:59;99956.78;;;2.74;100.00
14089;BME280;7120;52.890;6.040;2024-01-15T01:30:24;99953.81;;;2.81;100.00
14089;BME280;7120;52.890;6.040;2024-01-15T01:32:50;99943.03;;;2.70;100.00
14089;BME280;7120;52.890;6.040;2024-01-15T01:35:15;99923.88;;;2.77;100.00
14089;BME280;7120;52.890;6.040;2024-01-15T01:37:40;99930.59;;;2.80;100.00
14089;BME280;7120;52.890;6.040;2024-01-15T01:40:06;99919.00;;;2.84;100.00
14089;BME280;7120;52.890;6.040;2024-01-15T01:42:32;99909.00;;;2.80;100.00
14089;BME280;7120;52.890;6.040;2024-01-15T01:44:57;99911.41;;;2.86;100.00
14089;BME280;7120;52.890;6.040;2024-01-15T01:47:23;99917.91;;;2.85;100.00
14089;BME280;7120;52.890;6.040;2024-01-15T01:49:51;99933.56;;;2.78;100.00
14089;BME280;7120;52.890;6.040;2024-01-15T01:52:17;99923.34;;;2.65;100.00
14089;BME280;7120;52.890;6.040;2024-01-15T01:54:42;99936.84;;;2.65;100.00
14089;BME280;7120;52.890;6.040;2024-01-15T01:57:08;99935.75;;;2.71;100.00
14089;BME280;7120;52.890;6.040;2024-01-15T01:59:34;99950.06;;;2.61;100.00
14089;BME280;7120;52.890;6.040;2024-01-15T02:02:02;99961.13;;;2.29;100.00
14089;BME280;7120;52.890;6.040;2024-01-15T02:04:29;99949.22;;;2.00;100.00
14089;BME280;7120;52.890;6.040;2024-01-15T02:06:55;99944.66;;;2.05;100.00
14089;BME280;7120;52.890;6.040;2024-01-15T02:09:21;99918.22;;;2.07;100.00
14089;BME280;7120;52.890;6.040;2024-01-15T02:11:47;99924.41;;;2.18;100.00
14089;BME280;7120;52.890;6.040;2024-01-15T02:14:12;99917.16;;;2.24;100.00
14089;BME280;7120;52.890;6.040;2024-01-15T02:16:38;99914.19;;;2.30;100.00
14089;BME280;7120;52.890;6.040;2024-01-15T02:19:03;99914.44;;;2.39;100.00
14089;BME280;7120;52.890;6.040;2024-01-15T02:21:28;99913.91;;;2.42;100.00
14089;BME280;7120;52.890;6.040;2024-01-15T02:23:55;99902.56;;;2.45;100.00
14089;BME280;7120;52.890;6.040;2024-01-15T02:26:23;99903.09;;;2.52;100.00
14089;BME280;7120;52.890;6.040;2024-01-15T02:28:50;99898.50;;;2.53;100.00
14089;BME280;7120;52.890;6.040;2024-01-15T02:31:16;99900.16;;;2.43;100.00
14089;BME280;7120;52.890;6.040;2024-01-15T02:33:44;99899.88;;;2.50;100.00
14089;BME280;7120;52.890;6.040;2024-01-15T02:36:11;99894.75;;;2.48;100.00
14089;BME280;7120;52.890;6.040;2024-01-15T02:38:36;99894.72;;;2.54;100.00
14089;BME280;7120;52.890;6.040;2024-01-15T02:41:02;99894.16;;;2.67;100.00
14089;BME280;7120;52.890;6.040;2024-01-15T02:43:27;99898.50;;;2.68;100.00
14089;BME280;7120;52.890;6.040;2024-01-15T02:45:53;99923.06;;;2.71;100.00
14089;BME280;7120;52.890;6.040;2024-01-15T02:48:18;99923.88;;;2.77;100.00
14089;BME280;7120;52.890;6.040;2024-01-15T02:50:43;99927.63;;;2.81;100.00
14089;BME280;7120;52.890;6.040;2024-01-15T02:53:09;99920.63;;;2.75;100.00
14089;BME280;7120;52.890;6.040;2024-01-15T02:55:34;99922.22;;;2.81;100.00
14089;BME280;7120;52.890;6.040;2024-01-15T02:57:59;99921.16;;;2.72;100.00
14089;BME280;7120;52.890;6.040;2024-01-15T03:00:27;99913.06;;;2.77;100.00
14089;BME280;7120;52.890;6.040;2024-01-15T03:02:54;99915.19;;;2.80;100.00
14089;BME280;7120;52.890;6.040;2024-01-15T03:05:19;99916.56;;;2.72;100.00
14089;BME280;7120;52.890;6.040;2024-01-15T03:07:45;99921.97;;;2.78;100.00
14089;BME280;7120;52.890;6.040;2024-01-15T03:10:10;99927.63;;;2.81;100.00
14089;BME280;7120;52.890;6.040;2024-01-15T03:12:36;99929.75;;;2.94;100.00
14089;BME280;7120;52.890;6.040;2024-01-15T03:15:01;99933.81;;;2.92;100.00
14089;BME280;7120;52.890;6.040;2024-01-15T03:17:27;99927.84;;;2.95;100.00
14089;BME280;7120;52.890;6.040;2024-01-15T03:19:53;99925.44;;;2.98;100.00
14089;BME280;7120;52.890;6.040;2024-01-15T03:22:18;99917.84;;;3.11;100.00
14089;BME280;7120;52.890;6.040;2024-01-15T03:24:46;99915.38;;;3.19;100.00
14089;BME280;7120;52.890;6.040;2024-01-15T03:27:12;99914.00;;;3.27;100.00
14089;BME280;7120;52.890;6.040;2024-01-15T03:29:37;99911.81;;;3.24;100.00
14089;BME280;7120;52.890;6.040;2024-01-15T03:32:02;99903.72;;;3.24;100.00
14089;BME280;7120;52.890;6.040;2024-01-15T03:34:30;99913.47;;;3.25;100.00
14089;BME280;7120;52.890;6.040;2024-01-15T03:36:56;99910.50;;;3.26;100.00
14089;BME280;7120;52.890;6.040;2024-01-15T03:39:21;99908.91;;;3.15;100.00
14089;BME280;7120;52.890;6.040;2024-01-15T03:41:46;99909.75;;;3.06;100.00
14089;BME280;7120;52.890;6.040;2024-01-15T03:44:12;99914.09;;;2.91;100.00
14089;BME280;7120;52.890;6.040;2024-01-15T03:46:37;99916.47;;;3.08;100.00
14089;BME280;7120;52.890;6.040;2024-01-15T03:49:02;99909.22;;;3.03;100.00
14089;BME280;7120;52.890;6.040;2024-01-15T03:51:28;99895.44;;;3.00;100.00
14089;BME280;7120;52.890;6.040;2024-01-15T03:53:53;99912.69;;;3.14;100.00
14089;BME280;7120;52.890;6.040;2024-01-15T03:56:18;99905.41;;;3.10;100.00
14089;BME280;7120;52.890;6.040;2024-01-15T03:58:44;99903.72;;;3.24;100.00
14089;BME280;7120;52.890;6.040;2024-01-15T04:01:09;99894.59;;;3.15;100.00
14089;BME280;7120;52.890;6.040;2024-01-15T04:03:35;99901.63;;;3.11;100.00
14089;BME280;7120;52.890;6.040;2024-01-15T04:06:01;99898.34;;;3.19;100.00
14089;BME280;7120;52.890;6.040;2024-01-15T04:08:26;99905.94;;;3.12;100.00
14089;BME280;7120;52.890;6.040;2024-01-15T04:10:51;99899.47;;;3.13;100.00
14089;BME280;7120;52.890;6.040;2024-01-15T04:13:17;99903.78;;;3.14;100.00
14089;BME280;7120;52.890;6.040;2024-01-15T04:15:42;99912.41;;;3.16;100.00
14089;BME280;7120;52.890;6.040;2024-01-15T04:18:08;99915.09;;;3.26;100.00
14089;BME280;7120;52.890;6.040;2024-01-15T04:20:36;99909.16;;;3.19;100.00
14089;BME280;7120;52.890;6.040;2024-01-15T04:23:02;99922.16;;;3.12;100.00
14089;BME280;7120;52.890;6.040;2024-01-15T04:25:27;99923.53;;;2.99;100.00
14089;BME280;7120;52.890;6.040;2024-01-15T04:27:52;99924.63;;;2.88;100.00
14089;BME280;7120;52.890;6.040;2024-01-15T04:30:17;99919.00;;;2.79;100.00
14089;BME280;7120;52.890;6.040;2024-01-15T04:32:43;99909.31;;;2.68;100.00
14089;BME280;7120;52.890;6.040;2024-01-15T04:35:08;99896.63;;;2.68;100.00
14089;BME280;7120;52.890;6.040;2024-01-15T04:37:34;99877.41;;;2.85;100.00
14089;BME280;7120;52.890;6.040;2024-01-15T04:39:59;99869.81;;;2.87;100.00
14089;BME280;7120;52.890;6.040;2024-01-15T04:42:24;99871.94;;;2.95;100.00
14089;BME280;7120;52.890;6.040;2024-01-15T04:44:50;99870.63;;;2.93;100.00
14089;BME280;7120;52.890;6.040;2024-01-15T04:47:15;99861.16;;;2.95;100.00
14089;BME280;7120;52.890;6.040;2024-01-15T04:49:40;99868.19;;;2.96;100.00
14089;BME280;7120;52.890;6.040;2024-01-15T04:52:09;99870.09;;;2.86;100.00
14089;BME280;7120;52.890;6.040;2024-01-15T04:54:37;99862.56;;;2.78;100.00
14089;BME280;7120;52.890;6.040;2024-01-15T04:57:03;99860.16;;;2.76;100.00
14089;BME280;7120;52.890;6.040;2024-01-15T04:59:28;99864.47;;;2.82;100.00
14089;BME280;7120;52.890;6.040;2024-01-15T05:01:55;99874.19;;;2.83;100.00
14089;BME280;7120;52.890;6.040;2024-01-15T05:04:20;99881.19;;;2.79;100.00
14089;BME280;7120;52.890;6.040;2024-01-15T05:06:46;99880.38;;;2.84;100.00
14089;BME280;7120;52.890;6.040;2024-01-15T05:09:11;99865.03;;;2.69;100.00
14089;BME280;7120;52.890;6.040;2024-01-15T05:11:38;99866.41;;;2.61;100.00
14089;BME280;7120;52.890;6.040;2024-01-15T05:14:03;99854.75;;;2.76;100.00
14089;BME280;7120;52.890;6.040;2024-01-15T05:16:29;99859.13;;;2.62;100.00
14089;BME280;7120;52.890;6.040;2024-01-15T05:18:54;99848.28;;;2.67;100.00
14089;BME280;7120;52.890;6.040;2024-01-15T05:21:19;99848.84;;;2.64;100.00
14089;BME280;7120;52.890;6.040;2024-01-15T05:23:45;99843.44;;;2.59;100.00
14089;BME280;7120;52.890;6.040;2024-01-15T05:26:10;99843.19;;;2.55;100.00
14089;BME280;7120;52.890;6.040;2024-01-15T05:28:35;99844.84;;;2.41;100.00
14089;BME280;7120;52.890;6.040;2024-01-15T05:31:01;99843.50;;;2.38;100.00
14089;BME280;7120;52.890;6.040;2024-01-15T05:33:26;99838.38;;;2.16;100.00
14089;BME280;7120;52.890;6.040;2024-01-15T05:35:52;99842.97;;;2.21;100.00
14089;BME280;7120;52.890;6.040;2024-01-15T05:38:18;99836.25;;;2.08;100.00
14089;BME280;7120;52.890;6.040;2024-01-15T05:40:43;99831.38;;;2.20;100.00
14089;BME280;7120;52.890;6.040;2024-01-15T05:43:09;99841.38;;;2.15;100.00
14089;BME280;7120;52.890;6.040;2024-01-15T05:45:35;99838.66;;;2.30;100.00
14089;BME280;7120;52.890;6.040;2024-01-15T05:48:03;99842.69;;;2.38;100.00
14089;BME280;7120;52.890;6.040;2024-01-15T05:50:29;99850.22;;;2.46;100.00
14089;BME280;7120;52.890;6.040;2024-01-15T05:52:54;99861.25;;;2.70;100.00
14089;BME280;7120;52.890;6.040;2024-01-15T05:55:19;99866.69;;;2.55;100.00
14089;BME280;7120;52.890;6.040;2024-01-15T05:57:45;99853.16;;;2.65;100.00
14089;BME280;7120;52.890;6.040;2024-01-15T06:00:11;99838.09;;;2.48;100.00
14089;BME280;7120;52.890;6.040;2024-01-15T06:02:39;99850.22;;;2.56;100.00
14089;BME280;7120;52.890;6.040;2024-01-15T06:05:05;99837.81;;;2.50;100.00
14089;BME280;7120;52.890;6.040;2024-01-15T06:07:31;99829.97;;;2.59;100.00
14089;BME280;7120;52.890;6.040;2024-01-15T06:09:57;99834.03;;;2.51;100.00
14089;BME280;7120;52.890;6.040;2024-01-15T06:12:22;99836.47;;;2.37;100.00
14089;BME280;7120;52.890;6.040;2024-01-15T06:14:48;99835.41;;;2.33;100.00
14089;BME280;7120;52.890;6.040;2024-01-15T06:17:14;99833.28;;;2.20;100.00
14089;BME280;7120;52.890;6.040;2024-01-15T06:19:39;99827.34;;;2.33;100.00
14089;BME280;7120;52.890;6.040;2024-01-15T06:22:04;99829.22;;;2.28;100.00
14089;BME280;7120;52.890;6.040;2024-01-15T06:24:29;99825.72;;;2.17;100.00
14089;BME280;7120;52.890;6.040;2024-01-15T06:26:55;99821.16;;;2.12;100.00
14089;BME280;7120;52.890;6.040;2024-01-15T06:29:25;99814.41;;;2.05;100.00
14089;BME280;7120;52.890;6.040;2024-01-15T06:31:51;99821.69;;;2.09;100.00
14089;BME280;7120;52.890;6.040;2024-01-15T06:34:16;99811.72;;;2.05;100.00
14089;BME280;7120;52.890;6.040;2024-01-15T06:36:41;99814.66;;;2.08;100.00
14089;BME280;7120;52.890;6.040;2024-01-15T06:39:07;99833.28;;;2.15;100.00
14089;BME280;7120;52.890;6.040;2024-01-15T06:41:32;99836.75;;;2.36;100.00
14089;BME280;7120;52.890;6.040;2024-01-15T06:43:58;99843.22;;;2.45;100.00
14089;BME280;7120;52.890;6.040;2024-01-15T06:46:23;99842.13;;;2.56;100.00
14089;BME280;7120;52.890;6.040;2024-01-15T06:48:49;99835.34;;;2.64;100.00
14089;BME280;7120;52.890;6.040;2024-01-15T06:51:15;99829.16;;;2.58;100.00
14089;BME280;7120;52.890;6.040;2024-01-15T06:53:41;99830.00;;;2.48;100.00
14089;BME280;7120;52.890;6.040;2024-01-15T06:56:06;99822.16;;;2.52;100.00
14089;BME280;7120;52.890;6.040;2024-01-15T06:58:32;99824.00;;;2.67;100.00
14089;BME280;7120;52.890;6.040;2024-01-15T07:00:57;99836.97;;;2.65;100.00
14089;BME280;7120;52.890;6.040;2024-01-15T07:03:23;99826.16;;;2.70;100.00
14089;BME280;7120;52.890;6.040;2024-01-15T07:05:48;99828.34;;;2.63;100.00
14089;BME280;7120;52.890;6.040;2024-01-15T07:08:14;99823.50;;;2.44;100.00
14089;BME280;7120;52.890;6.040;2024-01-15T07:10:39;99817.91;;;2.26;100.00
14089;BME280;7120;52.890;6.040;2024-01-15T07:13:04;99817.06;;;2.35;100.00
14089;BME280;7120;52.890;6.040;2024-01-15T07:15:30;99811.97;;;2.18;100.00
14089;BME280;7120;52.890;6.040;2024-01-15T07:17:56;99823.03;;;2.12;100.00
14089;BME280;7120;52.890;6.040;2024-01-15T07:20:21;99816.00;;;2.16;100.00
14089;BME280;7120;52.890;6.040;2024-01-15T07:22:49;99813.59;;;2.04;100.00
14089;BME280;7120;52.890;6.040;2024-01-15T07:25:15;99818.44;;;2.02;100.00
14089;BME280;7120;52.890;6.040;2024-01-15T07:27:41;99811.97;;;2.08;100.00
14089;BME280;7120;52.890;6.040;2024-01-15T07:30:09;99816.00;;;2.11;100.00
14089;BME280;7120;52.890;6.040;2024-01-15T07:32:35;99809.81;;;2.00;100.00
14089;BME280;7120;52.890;6.040;2024-01-15T07:35:00;99809.03;;;2.05;100.00
14089;BME280;7120;52.890;6.040;2024-01-15T07:37:26;99818.16;;;2.09;100.00
14089;BME280;7120;52.890;6.040;2024-01-15T07:39:51;99816.31;;;1.99;100.00
14089;BME280;7120;52.890;6.040;2024-01-15T07:42:17;99818.72;;;1.96;100.00
14089;BME280;7120;52.890;6.040;2024-01-15T07:44:42;99817.09;;;1.95;100.00
14089;BME280;7120;52.890;6.040;2024-01-15T07:47:07;99808.22;;;1.99;100.00
14089;BME280;7120;52.890;6.040;2024-01-15T07:49:34;99814.97;;;1.91;100.00
14089;BME280;7120;52.890;6.040;2024-01-15T07:52:00;99815.22;;;1.90;100.00
14089;BME280;7120;52.890;6.040;2024-01-15T07:54:25;99819.28;;;1.98;100.00
14089;BME280;7120;52.890;6.040;2024-01-15T07:59:19;99821.16;;;2.12;100.00
14089;BME280;7120;52.890;6.040;2024-01-15T08:01:45;99818.69;;;2.11;100.00
14089;BME280;7120;52.890;6.040;2024-01-15T08:04:10;99820.03;;;2.24;100.00
14089;BME280;7120;52.890;6.040;2024-01-15T08:06:37;99820.28;;;2.37;100.00
14089;BME280;7120;52.890;6.040;2024-01-15T08:09:03;99827.84;;;2.30;100.00
14089;BME280;7120;52.890;6.040;2024-01-15T08:11:29;99825.41;;;2.39;100.00
14089;BME280;7120;52.890;6.040;2024-01-15T08:13:55;99832.72;;;2.28;100.00
14089;BME280;7120;52.890;6.040;2024-01-15T08:16:20;99835.41;;;2.33;100.00
14089;BME280;7120;52.890;6.040;2024-01-15T08:18:46;99837.53;;;2.62;100.00
14089;BME280;7120;52.890;6.040;2024-01-15T08:21:12;99827.53;;;2.52;100.00
14089;BME280;7120;52.890;6.040;2024-01-15T08:23:37;99826.22;;;2.39;100.00
14089;BME280;7120;52.890;6.040;2024-01-15T08:26:03;99831.88;;;2.48;100.00
14089;BME280;7120;52.890;6.040;2024-01-15T08:28:28;99837.56;;;2.41;100.00
14089;BME280;7120;52.890;6.040;2024-01-15T08:30:54;99827.84;;;2.35;100.00
14089;BME280;7120;52.890;6.040;2024-01-15T08:33:19;99821.38;;;2.36;100.00
14089;BME280;7120;52.890;6.040;2024-01-15T08:35:44;99821.94;;;2.23;100.00
14089;BME280;7120;52.890;6.040;2024-01-15T08:38:10;99820.03;;;2.34;100.00
14089;BME280;7120;52.890;6.040;2024-01-15T08:40:36;99811.94;;;2.34;100.00
14089;BME280;7120;52.890;6.040;2024-01-15T08:43:01;99805.44;;;2.50;100.00
14089;BME280;7120;52.890;6.040;2024-01-15T08:45:27;99810.81;;;2.50;100.00
14089;BME280;7120;52.890;6.040;2024-01-15T08:47:52;99813.81;;;2.48;100.00
14089;BME280;7120;52.890;6.040;2024-01-15T08:50:17;99818.91;;;2.50;100.00
14089;BME280;7120;52.890;6.040;2024-01-15T08:52:43;99811.91;;;2.44;100.00
14089;BME280;7120;52.890;6.040;2024-01-15T08:55:08;99815.38;;;2.60;100.00
14089;BME280;7120;52.890;6.040;2024-01-15T08:57:33;99820.69;;;2.90;100.00
14089;BME280;7120;52.890;6.040;2024-01-15T08:59:59;99826.72;;;3.26;100.00
14089;BME280;7120;52.890;6.040;2024-01-15T09:02:25;99824.53;;;3.34;100.00
14089;BME280;7120;52.890;6.040;2024-01-15T09:04:50;99827.47;;;3.37;100.00
14089;BME280;7120;52.890;6.040;2024-01-15T09:07:17;99826.56;;;3.02;100.00
14089;BME280;7120;52.890;6.040;2024-01-15T09:09:43;99827.34;;;3.13;100.00
14089;BME280;7120;52.890;6.040;2024-01-15T09:12:11;99836.22;;;3.19;100.00
14089;BME280;7120;52.890;6.040;2024-01-15T09:14:40;99821.94;;;3.13;100.00
14089;BME280;7120;52.890;6.040;2024-01-15T09:17:05;99832.38;;;2.70;100.00
14089;BME280;7120;52.890;6.040;2024-01-15T09:19:31;99826.09;;;2.85;100.00
14089;BME280;7120;52.890;6.040;2024-01-15T09:21:56;99815.88;;;2.67;100.00
14089;BME280;7120;52.890;6.040;2024-01-15T09:24:21;99826.44;;;2.68;100.00
14089;BME280;7120;52.890;6.040;2024-01-15T09:26:47;99827.25;;;2.59;100.00
14089;BME280;7120;52.890;6.040;2024-01-15T09:29:12;99825.38;;;2.59;100.00
14089;BME280;7120;52.890;6.040;2024-01-15T09:31:38;99820.00;;;2.39;100.00
14089;BME280;7120;52.890;6.040;2024-01-15T09:34:04;99824.03;;;2.52;100.00
14089;BME280;7120;52.890;6.040;2024-01-15T09:36:29;99820.84;;;2.34;100.00
14089;BME280;7120;52.890;6.040;2024-01-15T09:38:54;99813.53;;;2.50;100.00
14089;BME280;7120;52.890;6.040;2024-01-15T09:41:20;99811.56;;;2.71;100.00
14089;BME280;7120;52.890;6.040;2024-01-15T09:43:45;99829.81;;;3.05;100.00
14089;BME280;7120;52.890;6.040;2024-01-15T09:46:11;99827.00;;;3.25;100.00
14089;BME280;7120;52.890;6.040;2024-01-15T09:48:36;99819.41;;;3.32;100.00
14089;BME280;7120;52.890;6.040;2024-01-15T09:51:06;99818.84;;;3.30;100.00
14089;BME280;7120;52.890;6.040;2024-01-15T09:53:32;99816.19;;;3.25;100.00
14089;BME280;7120;52.890;6.040;2024-01-15T09:55:58;99819.22;;;3.18;100.00
14089;BME280;7120;52.890;6.040;2024-01-15T09:58:23;99822.53;;;3.00;100.00
14089;BME280;7120;52.890;6.040;2024-01-15T10:00:50;99817.13;;;3.05;100.00
14089;BME280;7120;52.890;6.040;2024-01-15T10:03:17;99828.41;;;3.12;100.00
14089;BME280;7120;52.890;6.040;2024-01-15T10:05:43;99826.41;;;3.33;100.00
14089;BME280;7120;52.890;6.040;2024-01-15T10:08:09;99828.75;;;3.45;100.00
14089;BME280;7120;52.890;6.040;2024-01-15T10:10:36;99826.13;;;3.35;100.00
14089;BME280;7120;52.890;6.040;2024-01-15T10:13:02;99825.50;;;3.53;100.00
14089;BME280;7120;52.890;6.040;2024-01-15T10:15:29;99829.84;;;3.49;100.00
14089;BME280;7120;52.890;6.040;2024-01-15T10:17:54;99828.94;;;3.58;100.00
14089;BME280;7120;52.890;6.040;2024-01-15T10:20:20;99820.34;;;3.51;100.00
14089;BME280;7120;52.890;6.040;2024-01-15T10:22:47;99829.50;;;3.61;100.00
14089;BME280;7120;52.890;6.040;2024-01-15T10:25:13;99835.88;;;3.75;100.00
14089;BME280;7120;52.890;6.040;2024-01-15T10:27:40;99842.59;;;3.82;100.00
14089;BME280;7120;52.890;6.040;2024-01-15T10:30:07;99852.00;;;3.90;100.00
14089;BME280;7120;52.890;6.040;2024-01-15T10:32:32;99845.00;;;3.84;100.00
14089;BME280;7120;52.890;6.040;2024-01-15T10:34:58;99847.09;;;3.92;100.00
14089;BME280;7120;52.890;6.040;2024-01-15T10:37:26;99858.88;;;3.72;100.00
14089;BME280;7120;52.890;6.040;2024-01-15T10:39:52;99855.03;;;3.39;100.00
14089;BME280;7120;52.890;6.040;2024-01-15T10:42:17;99863.31;;;2.98;100.00
14089;BME280;7120;52.890;6.040;2024-01-15T10:44:44;99858.22;;;2.92;100.00
14089;BME280;7120;52.890;6.040;2024-01-15T10:47:12;99855.00;;;2.74;100.00
14089;BME280;7120;52.890;6.040;2024-01-15T10:49:37;99851.25;;;2.65;100.00
14089;BME280;7120;52.890;6.040;2024-01-15T10:52:03;99859.41;;;2.55;100.00
14089;BME280;7120;52.890;6.040;2024-01-15T10:54:29;99853.97;;;2.65;100.00
14089;BME280;7120;52.890;6.040;2024-01-15T10:56:56;99853.44;;;2.68;100.00
14089;BME280;7120;52.890;6.040;2024-01-15T10:59:24;99856.91;;;2.79;100.00
14089;BME280;7120;52.890;6.040;2024-01-15T11:01:51;99846.09;;;2.79;100.00
14089;BME280;7120;52.890;6.040;2024-01-15T11:04:22;99847.47;;;2.77;100.00
14089;BME280;7120;52.890;6.040;2024-01-15T11:06:51;99841.19;;;2.96;100.00
14089;BME280;7120;52.890;6.040;2024-01-15T11:09:17;99837.13;;;2.99;100.00
14089;BME280;7120;52.890;6.040;2024-01-15T11:11:45;99829.00;;;2.99;100.00
14089;BME280;7120;52.890;6.040;2024-01-15T11:14:41;99843.84;;;3.07;100.00
14089;BME280;7120;52.890;6.040;2024-01-15T11:17:10;99847.81;;;3.24;100.00
14089;BME280;7120;52.890;6.040;2024-01-15T11:19:45;99851.59;;;3.23;100.00
14089;BME280;7120;52.890;6.040;2024-01-15T11:24:55;99853.91;;;3.45;100.00
14089;BME280;7120;52.890;6.040;2024-01-15T11:27:45;99844.78;;;3.36;100.00
14089;BME280;7120;52.890;6.040;2024-01-15T11:30:17;99858.75;;;3.48;100.00
14089;BME280;7120;52.890;6.040;2024-01-15T11:32:45;99853.34;;;3.53;100.00
14089;BME280;7120;52.890;6.040;2024-01-15T11:35:12;99844.19;;;3.44;100.00
14089;BME280;7120;52.890;6.040;2024-01-15T11:42:58;99863.06;;;3.54;100.00
14089;BME280;7120;52.890;6.040;2024-01-15T11:45:23;99854.38;;;3.57;100.00
14089;BME280;7120;52.890;6.040;2024-01-15T11:50:17;99871.84;;;3.75;100.00
14089;BME280;7120;52.890;6.040;2024-01-15T11:52:48;99876.81;;;3.58;100.00
14089;BME280;7120;52.890;6.040;2024-01-15T11:55:22;99882.75;;;2.95;100.00
14089;BME280;7120;52.890;6.040;2024-01-15T11:57:51;99909.88;;;2.34;100.00
14089;BME280;7120;52.890;6.040;2024-01-15T12:00:17;99909.31;;;2.17;100.00
14089;BME280;7120;52.890;6.040;2024-01-15T12:02:44;99908.78;;;2.05;100.00
14089;BME280;7120;52.890;6.040;2024-01-15T12:05:15;99905.56;;;2.08;100.00
14089;BME280;7120;52.890;6.040;2024-01-15T12:07:42;99909.31;;;2.07;100.00
14089;BME280;7120;52.890;6.040;2024-01-15T12:10:11;99916.88;;;2.00;100.00
14089;BME280;7120;52.890;6.040;2024-01-15T12:12:57;99921.44;;;1.94;100.00
14089;BME280;7120;52.890;6.040;2024-01-15T12:15:24;99922.75;;;1.71;100.00
14089;BME280;7120;52.890;6.040;2024-01-15T12:17:49;99923.81;;;1.65;100.00
14089;BME280;7120;52.890;6.040;2024-01-15T12:20:15;99913.84;;;1.65;100.00
14089;BME280;7120;52.890;6.040;2024-01-15T12:22:42;99916.31;;;1.87;100.00
14089;BME280;7120;52.890;6.040;2024-01-15T12:25:08;99917.41;;;2.17;100.00
14089;BME280;7120;52.890;6.040;2024-01-15T12:27:34;99914.47;;;2.29;100.00
14089;BME280;7120;52.890;6.040;2024-01-15T12:30:00;99910.41;;;2.36;100.00
14089;BME280;7120;52.890;6.040;2024-01-15T12:32:25;99908.78;;;2.56;100.00
14089;BME280;7120;52.890;6.040;2024-01-15T12:34:51;99909.25;;;2.88;100.00
14089;BME280;7120;52.890;6.040;2024-01-15T12:37:20;99912.97;;;3.08;100.00
14089;BME280;7120;52.890;6.040;2024-01-15T12:39:46;99912.41;;;3.21;100.00
14089;BME280;7120;52.890;6.040;2024-01-15T12:42:14;99916.16;;;3.25;100.00
14089;BME280;7120;52.890;6.040;2024-01-15T12:44:39;99912.97;;;3.18;100.00
14089;BME280;7120;52.890;6.040;2024-01-15T12:47:05;99911.03;;;3.23;100.00
14089;BME280;7120;52.890;6.040;2024-01-15T12:49:30;99914.22;;;3.30;100.00
14089;BME280;7120;52.890;6.040;2024-01-15T12:51:59;99912.09;;;3.33;100.00
14089;BME280;7120;52.890;6.040;2024-01-15T12:54:25;99923.19;;;3.26;100.00
14089;BME280;7120;52.890;6.040;2024-01-15T12:56:51;99926.41;;;3.28;100.00
14089;BME280;7120;52.890;6.040;2024-01-15T12:59:17;99938.53;;;3.46;100.00
14089;BME280;7120;52.890;6.040;2024-01-15T13:01:43;99939.53;;;3.55;100.00
14089;BME280;7120;52.890;6.040;2024-01-15T13:04:09;99934.97;;;3.50;100.00
14089;BME280;7120;52.890;6.040;2024-01-15T13:06:35;99933.34;;;3.54;100.00
14089;BME280;7120;52.890;6.040;2024-01-15T13:09:00;99922.81;;;3.48;100.00
14089;BME280;7120;52.890;6.040;2024-01-15T13:11:27;99935.66;;;3.71;100.00
14089;BME280;7120;52.890;6.040;2024-01-15T13:13:52;99949.56;;;3.99;100.00
14089;BME280;7120;52.890;6.040;2024-01-15T13:16:17;99978.00;;;3.96;100.00